createdAt,value
2018-02-18T09:24:51.503Z,20.40
2018-02-18T09:27:26.595Z,20.40
2018-02-18T09:29:54.149Z,20.30
2018-02-18T09:32:21.683Z,20.20
2018-02-18T09:34:49.238Z,20.10
2018-02-18T09:37:16.820Z,20.10
2018-02-18T09:39:59.641Z,20.10
2018-02-18T09:42:27.188Z,20.10
2018-02-18T09:44:54.725Z,20.10
2018-02-18T09:47:22.270Z,20.00
2018-02-18T09:49:49.835Z,20.10
2018-02-18T09:52:17.386Z,20.00
2018-02-18T09:54:45.699Z,20.10
2018-02-18T09:57:13.248Z,20.00
2018-02-18T09:59:40.803Z,20.00
2018-02-18T10:02:08.356Z,20.10
2018-02-18T10:04:35.907Z,20.10
2018-02-18T10:07:03.439Z,20.10
2018-02-18T10:09:30.985Z,20.10
2018-02-18T10:11:58.555Z,20.10
2018-02-18T10:14:26.124Z,20.20
2018-02-18T10:16:53.704Z,20.10
2018-02-18T10:19:36.994Z,20.10
2018-02-18T10:22:06.217Z,20.10
2018-02-18T10:24:33.749Z,20.10
2018-02-18T10:27:01.309Z,20.10
2018-02-18T10:29:28.849Z,20.10
2018-02-18T10:31:56.394Z,20.00
2018-02-18T10:34:23.967Z,20.10
2018-02-18T10:36:51.521Z,20.10
2018-02-18T10:39:19.067Z,20.10
2018-02-18T10:41:46.648Z,20.20
2018-02-18T10:44:14.176Z,20.20
2018-02-18T10:46:42.480Z,20.20
2018-02-18T10:49:10.064Z,20.20
2018-02-18T10:51:37.613Z,20.30
2018-02-18T10:54:05.162Z,20.30
2018-02-18T10:56:32.749Z,20.30
2018-02-18T10:59:13.908Z,20.30
2018-02-18T11:01:42.197Z,20.30
2018-02-18T11:04:09.751Z,20.30
2018-02-18T11:06:37.285Z,20.30
2018-02-18T11:09:04.841Z,20.30
2018-02-18T11:11:46.219Z,20.30
2018-02-18T11:14:14.555Z,20.30
2018-02-18T11:16:42.103Z,20.30
2018-02-18T11:19:09.640Z,20.30
2018-02-18T11:21:37.199Z,20.40
2018-02-18T11:24:04.747Z,20.40
2018-02-18T11:26:32.298Z,20.40
2018-02-18T11:29:00.632Z,20.40
2018-02-18T11:31:28.178Z,20.30
2018-02-18T11:33:55.971Z,20.30
2018-02-18T11:36:23.555Z,20.30
2018-02-18T11:38:51.867Z,20.30
2018-02-18T11:41:19.405Z,20.30
2018-02-18T11:43:47.736Z,20.30
2018-02-18T11:46:15.282Z,20.30
2018-02-18T11:48:42.825Z,20.30
2018-02-18T11:51:23.551Z,20.30
2018-02-18T11:53:52.489Z,20.30
2018-02-18T11:56:20.036Z,20.30
2018-02-18T11:58:47.590Z,20.40
2018-02-18T12:01:15.143Z,20.50
2018-02-18T12:03:43.455Z,20.60
2018-02-18T12:06:11.014Z,20.60
2018-02-18T12:08:38.560Z,20.60
2018-02-18T12:11:06.106Z,20.60
2018-02-18T12:13:33.659Z,20.60
2018-02-18T12:16:01.967Z,20.60
2018-02-18T12:18:29.509Z,20.50
2018-02-18T12:20:57.061Z,20.50
2018-02-18T12:23:25.415Z,20.50
2018-02-18T12:25:52.949Z,20.50
2018-02-18T12:28:20.520Z,20.60
2018-02-18T12:30:48.055Z,20.60
2018-02-18T12:33:15.605Z,20.60
2018-02-18T12:35:43.158Z,20.50
2018-02-18T12:38:10.715Z,20.50
2018-02-18T12:41:26.414Z,20.50
2018-02-18T12:43:53.962Z,20.50
2018-02-18T12:46:21.516Z,20.50
2018-02-18T12:48:49.072Z,20.50
2018-02-18T12:51:17.394Z,20.50
2018-02-18T12:53:57.644Z,20.50
2018-02-18T12:56:25.198Z,20.50
2018-02-18T12:58:52.735Z,20.60
2018-02-18T13:01:35.025Z,20.60
2018-02-18T13:07:49.840Z,20.50
2018-02-18T13:10:17.506Z,20.50
2018-02-18T13:13:20.366Z,20.50
2018-02-18T13:15:48.679Z,20.50
2018-02-18T13:18:16.221Z,20.50
2018-02-18T13:24:05.286Z,20.50
2018-02-18T13:26:33.603Z,20.50
2018-02-18T13:32:22.952Z,20.50
2018-02-18T13:34:51.270Z,20.40
2018-02-18T13:40:23.272Z,20.40
2018-02-18T13:42:50.814Z,20.40
2018-02-18T13:45:18.361Z,20.50
2018-02-18T13:48:08.366Z,20.50
2018-02-18T13:50:35.909Z,20.50
2018-02-18T13:53:03.955Z,20.50
2018-02-18T13:55:32.274Z,20.50
2018-02-18T13:57:59.814Z,20.50
2018-02-18T14:00:27.364Z,20.50
2018-02-18T14:02:55.681Z,20.40
2018-02-18T14:05:23.221Z,20.40
2018-02-18T14:07:50.754Z,20.40
2018-02-18T14:10:19.092Z,20.20
2018-02-18T14:12:53.872Z,20.20
2018-02-18T14:15:22.196Z,20.30
2018-02-18T14:17:49.790Z,20.20
2018-02-18T14:20:17.325Z,20.30
2018-02-18T14:22:44.896Z,20.20
2018-02-18T14:25:12.433Z,20.30
2018-02-18T14:27:47.692Z,20.20
2018-02-18T14:30:15.213Z,20.20
2018-02-18T14:32:42.753Z,20.20
2018-02-18T14:35:11.063Z,20.20
2018-02-18T14:37:38.597Z,20.20
2018-02-18T14:40:16.980Z,20.20
2018-02-18T14:42:56.389Z,20.10
2018-02-18T14:45:35.722Z,20.10
2018-02-18T14:48:36.934Z,20.10
2018-02-18T14:51:17.038Z,20.00
2018-02-18T14:53:56.546Z,20.10
2018-02-18T14:56:53.074Z,20.00
2018-02-18T14:59:21.415Z,20.00
2018-02-18T15:01:49.006Z,20.00
2018-02-18T15:04:16.673Z,20.00
2018-02-18T15:06:44.984Z,20.00
2018-02-18T15:09:25.389Z,20.00
2018-02-18T15:11:52.962Z,19.90
2018-02-18T15:14:21.263Z,19.90
2018-02-18T15:16:48.825Z,19.80
2018-02-18T15:19:16.355Z,19.90
2018-02-18T15:21:44.670Z,19.90
2018-02-18T15:24:12.239Z,19.80
2018-02-18T15:26:39.779Z,19.80
2018-02-18T15:29:07.320Z,19.80
2018-02-18T15:31:35.650Z,19.80
2018-02-18T15:34:03.195Z,19.80
2018-02-18T15:36:30.734Z,19.80
2018-02-18T15:38:58.297Z,19.80
2018-02-18T15:41:25.845Z,19.70
2018-02-18T15:43:54.255Z,19.80
2018-02-18T15:46:21.805Z,19.70
2018-02-18T15:49:02.903Z,19.70
2018-02-18T15:51:30.437Z,19.70
2018-02-18T15:53:57.983Z,19.70
2018-02-18T15:56:26.290Z,19.70
2018-02-18T15:58:53.857Z,19.70
2018-02-18T16:01:21.406Z,19.70
2018-02-18T16:03:48.939Z,19.70
2018-02-18T16:06:17.261Z,19.70
2018-02-18T16:08:44.799Z,19.70
2018-02-18T16:11:13.498Z,19.70
2018-02-18T16:13:41.046Z,19.70
2018-02-18T16:16:08.606Z,19.70
2018-02-18T16:18:36.145Z,19.60
2018-02-18T16:21:04.465Z,19.70
2018-02-18T16:23:32.020Z,19.60
2018-02-18T16:26:00.332Z,19.60
2018-02-18T16:28:28.723Z,19.60
2018-02-18T16:30:56.266Z,19.70
2018-02-18T16:33:23.816Z,19.60
2018-02-18T16:35:51.412Z,19.60
2018-02-18T16:38:19.714Z,19.70
2018-02-18T16:40:47.250Z,19.60
2018-02-18T16:43:14.821Z,19.60
2018-02-18T16:45:43.143Z,19.70
2018-02-18T16:48:10.683Z,19.70
2018-02-18T16:50:38.236Z,19.60
2018-02-18T16:53:05.771Z,19.60
2018-02-18T16:55:35.027Z,19.70
2018-02-18T16:58:02.591Z,19.60
2018-02-18T17:00:30.124Z,19.60
2018-02-18T17:02:57.667Z,19.60
2018-02-18T17:05:25.991Z,19.60
2018-02-18T17:07:53.635Z,19.60
2018-02-18T17:10:21.172Z,19.60
2018-02-18T17:12:48.812Z,19.60
2018-02-18T17:15:16.344Z,19.60
2018-02-18T17:17:44.645Z,19.60
2018-02-18T17:20:12.197Z,19.60
2018-02-18T17:22:39.725Z,19.60
2018-02-18T17:25:08.043Z,19.60
2018-02-18T17:27:35.598Z,19.60
2018-02-18T17:30:03.127Z,19.60
2018-02-18T17:32:31.439Z,19.60
2018-02-18T17:34:59.004Z,19.60
2018-02-18T17:37:26.565Z,19.60
2018-02-18T17:39:54.106Z,19.60
2018-02-18T17:42:21.672Z,19.70
2018-02-18T17:44:49.206Z,19.80
2018-02-18T17:47:17.506Z,19.90
2018-02-18T17:49:45.048Z,19.90
2018-02-18T17:52:13.359Z,20.00
2018-02-18T17:54:40.916Z,20.00
2018-02-18T17:57:08.476Z,20.10
2018-02-18T17:59:36.031Z,20.10
2018-02-18T18:02:03.567Z,20.10
2018-02-18T18:04:31.876Z,20.10
2018-02-18T18:06:59.408Z,20.10
2018-02-18T18:09:27.714Z,20.10
2018-02-18T18:11:55.278Z,20.10
2018-02-18T18:14:22.819Z,20.10
2018-02-18T18:16:50.399Z,20.10
2018-02-18T18:19:17.958Z,20.10
2018-02-18T18:21:45.498Z,20.10
2018-02-18T18:24:13.039Z,20.20
2018-02-18T18:26:41.360Z,20.20
2018-02-18T18:29:08.906Z,20.20
2018-02-18T18:31:36.448Z,20.20
2018-02-18T18:34:04.789Z,20.20
2018-02-18T18:36:32.331Z,20.30
2018-02-18T18:38:59.869Z,20.30
2018-02-18T18:41:27.428Z,20.20
2018-02-18T18:43:54.978Z,20.30
2018-02-18T18:46:22.529Z,20.30
2018-02-18T18:48:50.852Z,20.50
2018-02-18T18:51:18.397Z,20.50
2018-02-18T18:53:46.065Z,20.50
2018-02-18T18:56:13.666Z,20.60
2018-02-18T18:58:42.023Z,20.60
2018-02-18T19:01:09.572Z,20.60
2018-02-18T19:03:37.125Z,20.60
2018-02-18T19:06:04.744Z,20.50
2018-02-18T19:08:33.054Z,20.50
2018-02-18T19:11:00.620Z,20.50
2018-02-18T19:13:28.173Z,20.50
2018-02-18T19:15:55.706Z,20.40
2018-02-18T19:18:24.071Z,20.40
2018-02-18T19:20:51.594Z,20.40
2018-02-18T19:23:19.129Z,20.50
2018-02-18T19:25:46.672Z,20.50
2018-02-18T19:28:14.985Z,20.60
2018-02-18T19:30:42.544Z,20.50
2018-02-18T19:33:10.115Z,20.60
2018-02-18T19:35:37.671Z,20.60
2018-02-18T19:38:05.209Z,20.60
2018-02-18T19:40:32.766Z,20.60
2018-02-18T19:43:00.313Z,20.60
2018-02-18T19:45:27.905Z,20.60
2018-02-18T19:47:55.451Z,20.60
2018-02-18T19:50:23.008Z,20.60
2018-02-18T19:52:50.541Z,20.60
2018-02-18T19:55:18.855Z,20.60
2018-02-18T19:57:47.176Z,20.70
2018-02-18T20:00:15.456Z,20.70
2018-02-18T20:02:43.038Z,20.70
2018-02-18T20:05:11.342Z,20.60
2018-02-18T20:07:38.875Z,20.60
2018-02-18T20:10:07.206Z,20.60
2018-02-18T20:12:34.796Z,20.60
2018-02-18T20:15:02.336Z,20.60
2018-02-18T20:17:29.894Z,20.50
2018-02-18T20:19:57.440Z,20.50
2018-02-18T20:22:24.978Z,20.50
2018-02-18T20:24:52.535Z,20.60
2018-02-18T20:27:20.124Z,20.60
2018-02-18T20:29:47.659Z,20.70
2018-02-18T20:32:15.215Z,20.70
2018-02-18T20:34:42.755Z,20.70
2018-02-18T20:37:11.058Z,20.70
2018-02-18T20:39:38.606Z,20.70
2018-02-18T20:42:06.900Z,20.70
2018-02-18T20:44:34.442Z,20.70
2018-02-18T20:47:02.772Z,20.70
2018-02-18T20:49:30.413Z,20.70
2018-02-18T20:51:57.958Z,20.70
2018-02-18T20:54:25.518Z,20.60
2018-02-18T20:56:53.050Z,20.60
2018-02-18T20:59:21.354Z,20.60
2018-02-18T21:01:48.934Z,20.50
2018-02-18T21:04:16.488Z,20.60
2018-02-18T21:06:44.022Z,20.60
2018-02-18T21:09:12.337Z,20.70
2018-02-18T21:11:39.902Z,20.70
2018-02-18T21:14:07.450Z,20.70
2018-02-18T21:16:34.998Z,20.70
2018-02-18T21:19:02.542Z,20.70
2018-02-18T21:21:30.849Z,20.80
2018-02-18T21:23:58.408Z,20.70
2018-02-18T21:26:25.959Z,20.70
2018-02-18T21:28:53.519Z,20.70
2018-02-18T21:31:21.075Z,20.70
2018-02-18T21:33:48.617Z,20.70
2018-02-18T21:36:17.358Z,20.60
2018-02-18T21:38:44.922Z,20.60
2018-02-18T21:41:12.458Z,20.70
2018-02-18T21:43:55.102Z,20.70
2018-02-18T21:46:22.652Z,20.70
2018-02-18T21:48:50.194Z,20.60
2018-02-18T21:51:17.745Z,20.70
2018-02-18T21:53:45.288Z,20.70
2018-02-18T21:56:13.581Z,20.60
2018-02-18T21:58:41.130Z,20.60
2018-02-18T22:01:08.666Z,20.60
2018-02-18T22:03:36.225Z,20.60
2018-02-18T22:06:04.556Z,20.60
2018-02-18T22:08:40.469Z,20.60
2018-02-18T22:11:08.785Z,20.60
2018-02-18T22:13:36.324Z,20.60
2018-02-18T22:16:03.870Z,20.60
2018-02-18T22:18:32.213Z,20.60
2018-02-18T22:21:21.224Z,20.60
2018-02-18T22:23:48.784Z,20.50
2018-02-18T22:26:17.721Z,20.50
2018-02-18T22:28:45.259Z,20.50
2018-02-18T22:31:12.797Z,20.40
2018-02-18T22:33:57.984Z,20.40
2018-02-18T22:36:25.956Z,20.40
2018-02-18T22:38:53.529Z,20.40
2018-02-18T22:41:21.069Z,20.30
2018-02-18T22:43:48.663Z,20.30
2018-02-18T22:46:16.178Z,20.20
2018-02-18T22:48:44.481Z,20.20
2018-02-18T22:51:12.047Z,20.20
2018-02-18T22:53:39.571Z,20.20
2018-02-18T22:56:07.884Z,20.10
2018-02-18T22:58:43.685Z,20.10
2018-02-18T23:01:11.251Z,20.10
2018-02-18T23:03:38.874Z,20.10
2018-02-18T23:06:07.156Z,20.00
2018-02-18T23:08:34.684Z,20.00
2018-02-18T23:11:23.654Z,20.00
2018-02-18T23:13:51.200Z,19.90
2018-02-18T23:16:19.596Z,19.90
2018-02-18T23:18:47.148Z,19.90
2018-02-18T23:21:14.695Z,19.90
2018-02-18T23:24:04.498Z,19.80
2018-02-18T23:26:32.371Z,19.80
2018-02-18T23:28:59.918Z,19.80
2018-02-18T23:31:27.460Z,19.80
2018-02-18T23:33:57.241Z,19.70
2018-02-18T23:36:24.776Z,19.70
2018-02-18T23:38:52.315Z,19.70
2018-02-18T23:41:19.842Z,19.70
2018-02-18T23:43:48.139Z,19.60
2018-02-18T23:46:15.697Z,19.60
2018-02-18T23:48:46.557Z,19.60
2018-02-18T23:51:14.103Z,19.60
2018-02-18T23:53:41.648Z,19.60
2018-02-18T23:56:09.974Z,19.50
2018-02-18T23:58:37.522Z,19.50
